Time;durP1;ratioP1;P1;durP2;ratioP2;P2;SDS_P1;SDS_P2;PMS_P1;PMS_P2;Temp;Humidity;BMP_temperature;BMP_pressure;BME280_temperature;BME280_humidity;BME280_pressure;Samples;Min_cycle;Max_cycle;Signal;HPM_P1;HPM_P2
2023/01/20 00:01:14;;;;;;;;;;;;;;;22.80;20.65;97446.16;5028340;28;19921;-93
2023/01/20 00:03:41;;;;;;;;;;;;;;;22.74;20.74;97443.09;5047573;28;19917;-93
2023/01/20 00:06:07;;;;;;;;;;;;;;;22.68;21.18;97454.03;5052170;28;19927;-93
2023/01/20 00:08:34;;;;;;;;;;;;;;;22.59;20.97;97439.84;5045858;28;19929;-92
2023/01/20 00:11:07;;;;;;;;;;;;;;;22.74;21.08;97436.72;5040260;28;19917;-93
2023/01/20 00:13:34;;;;;;;;;;;;;;;22.83;20.61;97428.47;5042305;28;19972;-91
2023/01/20 00:16:04;;;;;;;;;;;;;;;23.17;20.89;97440.72;5046746;28;20292;-92
2023/01/20 00:18:30;;;;;;;;;;;;;;;23.56;20.29;97450.81;5048104;28;19944;-91
2023/01/20 00:21:00;;;;;;;;;;;;;;;23.91;20.43;97454.53;5044286;28;20369;-92
2023/01/20 00:23:26;;;;;;;;;;;;;;;24.12;19.59;97461.53;5045339;28;19943;-92
2023/01/20 00:25:52;;;;;;;;;;;;;;;23.79;19.67;97455.31;5048865;28;20388;-91
2023/01/20 00:28:18;;;;;;;;;;;;;;;23.42;19.97;97454.03;5043248;28;19924;-91
2023/01/20 00:30:44;;;;;;;;;;;;;;;23.48;20.91;97449.44;5043605;28;19925;-92
2023/01/20 00:33:10;;;;;;;;;;;;;;;23.72;20.49;97453.50;5041705;28;20381;-91
2023/01/20 00:35:37;;;;;;;;;;;;;;;23.80;20.04;97454.09;5045526;28;19956;-91
2023/01/20 00:38:03;;;;;;;;;;;;;;;23.37;20.08;97446.16;5045984;28;20385;-90
2023/01/20 00:40:29;;;;;;;;;;;;;;;23.40;20.07;97434.06;5049802;28;19928;-91
2023/01/20 00:42:55;;;;;;;;;;;;;;;23.33;20.42;97442.66;5045713;28;19916;-90
2023/01/20 00:45:21;;;;;;;;;;;;;;;22.84;20.50;97444.84;5047309;28;19957;-90
2023/01/20 00:47:47;;;;;;;;;;;;;;;22.54;20.93;97428.41;5045267;28;19921;-91
2023/01/20 00:50:13;;;;;;;;;;;;;;;22.39;21.27;97441.19;5053578;28;20373;-91
2023/01/20 00:52:39;;;;;;;;;;;;;;;22.45;21.60;97461.81;5057135;28;20007;-90
2023/01/20 00:55:05;;;;;;;;;;;;;;;22.64;20.74;97483.31;5047727;28;20372;-91
2023/01/20 00:57:31;;;;;;;;;;;;;;;23.10;20.88;97482.13;5042903;28;19971;-91
2023/01/20 00:59:57;;;;;;;;;;;;;;;23.31;19.82;97475.94;5049381;28;19928;-90
2023/01/20 01:02:23;;;;;;;;;;;;;;;22.96;20.41;97468.50;5047831;28;19925;-91
2023/01/20 01:04:49;;;;;;;;;;;;;;;22.90;20.60;97465.44;5045770;28;19971;-91
2023/01/20 01:07:16;;;;;;;;;;;;;;;23.18;20.79;97489.88;5041683;28;19921;-90
2023/01/20 01:09:42;;;;;;;;;;;;;;;23.59;20.37;97491.16;5033684;28;20401;-90
2023/01/20 01:12:08;;;;;;;;;;;;;;;23.73;19.50;97465.53;5045700;28;20015;-91
2023/01/20 01:14:34;;;;;;;;;;;;;;;22.98;20.03;97443.66;5045791;28;19991;-91
2023/01/20 01:17:00;;;;;;;;;;;;;;;22.30;21.01;97463.41;5038253;28;19968;-91
2023/01/20 01:19:26;;;;;;;;;;;;;;;22.58;20.84;97469.06;5049516;28;20382;-91
2023/01/20 01:21:52;;;;;;;;;;;;;;;23.01;20.41;97460.34;5047053;28;19921;-92
2023/01/20 01:24:18;;;;;;;;;;;;;;;23.35;20.37;97459.84;5048785;28;19933;-91
2023/01/20 01:26:44;;;;;;;;;;;;;;;23.64;20.20;97474.56;5046383;28;20082;-92
2023/01/20 01:29:10;;;;;;;;;;;;;;;23.98;19.72;97471.16;5041308;28;20425;-92
2023/01/20 01:31:37;;;;;;;;;;;;;;;24.20;19.47;97460.06;5046636;28;19928;-92
2023/01/20 01:34:03;;;;;;;;;;;;;;;24.28;19.12;97462.19;5044748;28;19921;-92
2023/01/20 01:36:29;;;;;;;;;;;;;;;24.48;19.26;97467.56;5043418;28;19916;-91
2023/01/20 01:38:56;;;;;;;;;;;;;;;24.62;19.21;97465.03;5044488;28;19921;-91
2023/01/20 01:41:22;;;;;;;;;;;;;;;24.64;19.02;97470.22;5040319;28;19957;-92
2023/01/20 01:44:02;;;;;;;;;;;;;;;24.45;18.97;97465.66;5047048;28;20392;-91
2023/01/20 01:46:28;;;;;;;;;;;;;;;24.09;19.36;97465.22;5055866;28;19921;-91
2023/01/20 01:48:54;;;;;;;;;;;;;;;23.90;19.71;97467.78;5054082;28;20399;-92
2023/01/20 01:51:24;;;;;;;;;;;;;;;24.08;19.97;97464.47;5046163;28;19921;-91
2023/01/20 01:53:56;;;;;;;;;;;;;;;24.09;19.19;97468.81;5047887;28;19963;-90
2023/01/20 01:56:24;;;;;;;;;;;;;;;23.67;19.71;97472.91;5042794;28;19916;-90
2023/01/20 01:58:52;;;;;;;;;;;;;;;23.64;20.01;97468.19;5050238;28;19943;-90
2023/01/20 02:01:19;;;;;;;;;;;;;;;23.67;19.94;97472.91;5050976;28;19921;-90
2023/01/20 02:03:59;;;;;;;;;;;;;;;23.90;20.06;97490.19;5054331;28;19971;-90
2023/01/20 02:06:28;;;;;;;;;;;;;;;24.04;19.90;97495.38;5048575;28;19921;-90
2023/01/20 02:08:54;;;;;;;;;;;;;;;24.07;19.74;97501.34;5050695;28;19925;-91
2023/01/20 02:11:20;;;;;;;;;;;;;;;24.23;19.84;97493.59;5044550;28;20296;-90
2023/01/20 02:13:46;;;;;;;;;;;;;;;24.45;19.93;97496.53;5051045;28;20297;-91
2023/01/20 02:16:16;;;;;;;;;;;;;;;24.59;19.51;97490.44;5043306;28;19959;-90
2023/01/20 02:18:53;;;;;;;;;;;;;;;24.71;19.57;97490.41;5047428;28;20262;-91
2023/01/20 02:21:31;;;;;;;;;;;;;;;24.86;19.08;97495.56;5050275;28;19944;-91
2023/01/20 02:24:22;;;;;;;;;;;;;;;24.88;19.55;97496.69;5042114;28;19963;-91
2023/01/20 02:27:00;;;;;;;;;;;;;;;24.92;19.38;97491.75;5050851;28;19920;-92
2023/01/20 02:29:38;;;;;;;;;;;;;;;24.64;19.70;97489.88;5055117;28;19920;-91
2023/01/20 02:32:04;;;;;;;;;;;;;;;24.56;19.75;97491.34;5042405;28;19917;-91
2023/01/20 02:35:00;;;;;;;;;;;;;;;24.58;19.68;97503.69;5051155;28;19925;-91
2023/01/20 02:37:28;;;;;;;;;;;;;;;24.66;19.46;97507.06;5030084;28;19939;-92
2023/01/20 02:40:12;;;;;;;;;;;;;;;24.60;19.26;97508.84;5044440;28;19927;-91
2023/01/20 02:42:54;;;;;;;;;;;;;;;24.39;19.88;97518.75;5051862;28;20063;-91
2023/01/20 02:45:20;;;;;;;;;;;;;;;23.96;19.73;97516.47;5045077;28;19971;-91
2023/01/20 02:47:48;;;;;;;;;;;;;;;23.68;20.43;97517.31;5048919;28;19967;-91
2023/01/20 02:50:19;;;;;;;;;;;;;;;23.57;20.74;97528.03;5050698;28;19924;-91
2023/01/20 02:52:50;;;;;;;;;;;;;;;23.79;21.02;97520.59;5044781;28;19921;-90
2023/01/20 02:55:28;;;;;;;;;;;;;;;24.03;19.96;97515.47;5046207;28;19974;-90
2023/01/20 02:57:58;;;;;;;;;;;;;;;23.70;20.14;97517.66;5049510;28;19928;-89
2023/01/20 03:00:30;;;;;;;;;;;;;;;23.25;20.59;97508.50;5056628;28;19971;-90
2023/01/20 03:02:57;;;;;;;;;;;;;;;23.43;20.97;97508.84;5059437;28;19924;-89
2023/01/20 03:05:27;;;;;;;;;;;;;;;23.77;20.92;97514.63;5049179;28;19994;-90
2023/01/20 03:07:54;;;;;;;;;;;;;;;24.07;20.48;97518.16;5052086;28;19928;-90
2023/01/20 03:10:23;;;;;;;;;;;;;;;24.28;19.59;97517.50;5046177;28;19937;-91
2023/01/20 03:12:53;;;;;;;;;;;;;;;23.97;19.94;97520.81;5051382;28;19968;-90
2023/01/20 03:15:21;;;;;;;;;;;;;;;24.23;20.50;97520.88;5050977;28;20376;-90
2023/01/20 03:17:47;;;;;;;;;;;;;;;24.19;19.27;97518.19;5044695;28;19928;-90
2023/01/20 03:20:13;;;;;;;;;;;;;;;23.60;19.91;97512.34;5063075;28;19917;-90
2023/01/20 03:22:39;;;;;;;;;;;;;;;23.26;20.48;97515.69;5051621;28;19920;-90
2023/01/20 03:25:06;;;;;;;;;;;;;;;22.95;20.56;97520.91;5055061;28;20018;-89
2023/01/20 03:27:32;;;;;;;;;;;;;;;23.14;20.80;97522.81;5046505;28;20294;-90
2023/01/20 03:29:58;;;;;;;;;;;;;;;23.13;20.66;97518.41;5051974;28;20292;-90
2023/01/20 03:32:25;;;;;;;;;;;;;;;22.94;20.72;97526.97;5049446;28;19925;-90
2023/01/20 03:34:53;;;;;;;;;;;;;;;23.01;21.03;97532.38;5050426;28;19927;-90
2023/01/20 03:37:19;;;;;;;;;;;;;;;23.21;20.49;97530.22;5052441;28;20007;-90
2023/01/20 03:39:46;;;;;;;;;;;;;;;23.35;20.69;97530.66;5055022;28;19917;-90
2023/01/20 03:42:27;;;;;;;;;;;;;;;23.40;20.23;97525.72;5055673;28;20447;-89
2023/01/20 03:45:09;;;;;;;;;;;;;;;23.27;20.24;97522.84;5031288;28;20377;-89
2023/01/20 03:47:53;;;;;;;;;;;;;;;23.26;20.48;97519.28;5053961;28;20404;-89
2023/01/20 03:50:34;;;;;;;;;;;;;;;23.31;20.32;97532.72;5053951;28;19998;-89
2023/01/20 03:53:00;;;;;;;;;;;;;;;23.17;20.46;97521.13;5053430;28;20305;-89
2023/01/20 03:55:40;;;;;;;;;;;;;;;23.27;20.41;97520.03;5055354;28;20011;-90
2023/01/20 03:58:08;;;;;;;;;;;;;;;23.15;20.68;97521.56;5049937;28;19929;-89
2023/01/20 04:00:36;;;;;;;;;;;;;;;22.55;21.14;97534.28;5050397;28;20265;-89
2023/01/20 04:03:06;;;;;;;;;;;;;;;22.36;20.91;97531.56;5053069;28;19928;-89
2023/01/20 04:05:32;;;;;;;;;;;;;;;21.68;21.54;97539.88;5050103;28;19975;-88
2023/01/20 04:08:01;;;;;;;;;;;;;;;22.29;21.76;97543.69;5044181;28;20032;-89
2023/01/20 04:10:28;;;;;;;;;;;;;;;22.86;20.96;97531.16;5047952;28;19921;-89
2023/01/20 04:12:54;;;;;;;;;;;;;;;23.24;20.52;97546.91;5050632;28;19921;-89
2023/01/20 04:15:22;;;;;;;;;;;;;;;23.13;20.40;97540.03;5051423;28;19940;-89
2023/01/20 04:17:48;;;;;;;;;;;;;;;23.19;20.64;97543.88;5051130;28;19921;-90
2023/01/20 04:20:14;;;;;;;;;;;;;;;23.31;20.49;97551.56;5052870;28;19925;-89
2023/01/20 04:22:53;;;;;;;;;;;;;;;23.56;20.96;97557.28;5049745;28;19956;-90
2023/01/20 04:25:29;;;;;;;;;;;;;;;23.96;19.96;97558.53;5042473;28;20400;-89
2023/01/20 04:27:55;;;;;;;;;;;;;;;24.08;20.02;97559.03;5042258;28;19960;-90
2023/01/20 04:30:21;;;;;;;;;;;;;;;24.14;20.09;97563.63;5039433;28;20401;-90
2023/01/20 04:32:47;;;;;;;;;;;;;;;24.02;19.76;97556.72;5046662;28;19956;-89
2023/01/20 04:35:15;;;;;;;;;;;;;;;24.11;19.40;97575.72;5047227;28;20293;-89
2023/01/20 04:37:41;;;;;;;;;;;;;;;24.29;19.79;97578.00;5046177;28;20045;-90
2023/01/20 04:40:07;;;;;;;;;;;;;;;24.37;19.32;97582.16;5047185;28;19921;-89
2023/01/20 04:42:33;;;;;;;;;;;;;;;24.24;19.60;97578.56;5050742;28;20016;-89
2023/01/20 04:44:59;;;;;;;;;;;;;;;24.03;19.75;97586.38;5047983;28;19959;-89
2023/01/20 04:47:28;;;;;;;;;;;;;;;23.72;19.79;97584.47;5042278;28;19921;-89
2023/01/20 04:49:54;;;;;;;;;;;;;;;23.13;20.04;97584.84;5049771;28;19917;-89
2023/01/20 04:52:20;;;;;;;;;;;;;;;23.07;20.53;97593.00;5047535;28;20392;-89
2023/01/20 04:54:46;;;;;;;;;;;;;;;22.93;20.43;97601.75;5048494;28;19925;-89
2023/01/20 04:57:12;;;;;;;;;;;;;;;23.25;20.93;97614.94;5041739;28;19924;-89
2023/01/20 04:59:38;;;;;;;;;;;;;;;23.40;20.50;97604.19;5044722;28;19924;-89
2023/01/20 05:02:04;;;;;;;;;;;;;;;23.53;20.36;97607.81;5042067;28;19928;-89
2023/01/20 05:04:30;;;;;;;;;;;;;;;23.69;20.00;97605.75;5047082;28;19921;-89
2023/01/20 05:06:56;;;;;;;;;;;;;;;23.87;19.73;97617.28;5043074;28;20273;-88
2023/01/20 05:09:22;;;;;;;;;;;;;;;23.85;19.72;97618.94;5046694;28;19925;-88
2023/01/20 05:11:48;;;;;;;;;;;;;;;23.90;19.99;97618.38;5048003;28;19936;-89
2023/01/20 05:14:14;;;;;;;;;;;;;;;23.90;19.93;97615.56;5039332;28;19933;-89
2023/01/20 05:16:40;;;;;;;;;;;;;;;23.74;20.19;97604.44;5043671;28;19921;-88
2023/01/20 05:19:06;;;;;;;;;;;;;;;24.01;19.89;97616.84;5046608;28;19922;-88
2023/01/20 05:21:32;;;;;;;;;;;;;;;24.10;19.66;97607.03;5046855;28;19932;-89
2023/01/20 05:23:58;;;;;;;;;;;;;;;23.72;19.52;97616.09;5046399;28;20011;-91
2023/01/20 05:26:24;;;;;;;;;;;;;;;23.62;20.01;97624.81;5045748;28;20296;-90
2023/01/20 05:28:50;;;;;;;;;;;;;;;23.25;19.93;97615.72;5044547;28;20011;-91
2023/01/20 05:31:17;;;;;;;;;;;;;;;22.81;20.32;97630.44;5043670;28;19921;-91
2023/01/20 05:33:43;;;;;;;;;;;;;;;22.38;20.68;97629.84;5035298;28;19947;-90
2023/01/20 05:36:09;;;;;;;;;;;;;;;21.81;21.69;97619.81;5042903;28;20440;-89
2023/01/20 05:38:36;;;;;;;;;;;;;;;21.75;21.98;97632.69;5047817;28;19921;-88
2023/01/20 05:41:04;;;;;;;;;;;;;;;21.94;21.83;97636.75;5044900;28;19929;-89
2023/01/20 05:43:30;;;;;;;;;;;;;;;22.04;21.08;97638.53;5047768;28;19939;-88
2023/01/20 05:45:57;;;;;;;;;;;;;;;22.02;21.20;97635.38;5043346;28;19967;-87
2023/01/20 05:48:23;;;;;;;;;;;;;;;22.16;21.45;97635.09;5043701;28;19939;-87
2023/01/20 05:50:49;;;;;;;;;;;;;;;22.47;20.80;97638.41;5040795;28;20439;-86
2023/01/20 05:53:15;;;;;;;;;;;;;;;22.66;20.87;97637.63;5048238;28;20059;-88
2023/01/20 05:55:41;;;;;;;;;;;;;;;23.01;20.86;97644.38;5045703;28;19924;-88
2023/01/20 05:58:08;;;;;;;;;;;;;;;23.51;20.57;97643.91;5051458;28;19940;-92
2023/01/20 06:00:34;;;;;;;;;;;;;;;23.92;20.09;97644.75;5048154;28;20011;-90
2023/01/20 06:03:00;;;;;;;;;;;;;;;24.24;19.81;97640.28;5042011;28;20405;-90
2023/01/20 06:05:26;;;;;;;;;;;;;;;24.42;19.55;97638.53;5035269;28;20280;-89
2023/01/20 06:07:55;;;;;;;;;;;;;;;24.51;19.22;97651.88;5050971;28;19999;-90
2023/01/20 06:10:26;;;;;;;;;;;;;;;24.48;19.34;97647.19;5056661;28;19920;-90
2023/01/20 06:12:53;;;;;;;;;;;;;;;24.34;19.06;97651.19;5036867;28;19961;-90
2023/01/20 06:15:22;;;;;;;;;;;;;;;23.92;19.44;97658.00;5055156;28;20445;-89
2023/01/20 06:17:48;;;;;;;;;;;;;;;21.83;22.01;97661.28;5062454;28;19917;-90
2023/01/20 06:20:15;;;;;;;;;;;;;;;22.77;20.77;97670.94;5064310;28;19979;-90
2023/01/20 06:22:41;;;;;;;;;;;;;;;23.13;20.93;97672.44;5058350;28;19952;-90
2023/01/20 06:25:07;;;;;;;;;;;;;;;23.25;19.80;97670.94;5076388;28;20349;-91
2023/01/20 06:27:33;;;;;;;;;;;;;;;22.88;20.05;97668.66;5074126;28;19922;-91
2023/01/20 06:29:59;;;;;;;;;;;;;;;22.82;20.94;97668.41;5056547;28;19916;-90
2023/01/20 06:32:25;;;;;;;;;;;;;;;23.01;20.04;97680.78;5069258;28;19917;-90
2023/01/20 06:34:54;;;;;;;;;;;;;;;21.69;21.74;97673.53;5061493;28;19947;-90
2023/01/20 06:37:20;;;;;;;;;;;;;;;21.55;21.79;97673.00;5055961;28;19921;-90
2023/01/20 06:39:46;;;;;;;;;;;;;;;20.66;22.89;97674.44;5056221;28;20254;-90
2023/01/20 06:42:12;;;;;;;;;;;;;;;19.23;24.50;97672.88;5056174;28;19931;-90
2023/01/20 06:44:38;;;;;;;;;;;;;;;17.51;26.47;97682.09;5056372;28;20277;-90
2023/01/20 06:47:04;;;;;;;;;;;;;;;17.97;26.02;97680.00;5056066;28;20269;-90
2023/01/20 06:49:32;;;;;;;;;;;;;;;16.33;29.15;97694.31;5069522;28;19923;-90
2023/01/20 06:51:58;;;;;;;;;;;;;;;13.47;33.66;97695.72;5060078;28;19939;-90
2023/01/20 06:54:26;;;;;;;;;;;;;;;13.58;33.86;97696.69;5056009;28;20450;-89
2023/01/20 06:56:52;;;;;;;;;;;;;;;12.26;36.54;97700.38;5055878;28;19920;-90
2023/01/20 06:59:18;;;;;;;;;;;;;;;12.83;35.82;97699.44;5055567;28;20364;-90
2023/01/20 07:01:44;;;;;;;;;;;;;;;12.70;35.73;97709.03;5053761;28;20012;-89
2023/01/20 07:04:13;;;;;;;;;;;;;;;12.32;36.69;97707.19;5055601;28;19912;-91
2023/01/20 07:06:40;;;;;;;;;;;;;;;12.29;36.74;97705.97;5072922;28;19916;-89
2023/01/20 07:09:07;;;;;;;;;;;;;;;13.12;35.14;97702.31;5044899;28;19912;-90
2023/01/20 07:11:36;;;;;;;;;;;;;;;13.39;34.79;97696.81;5055734;28;20326;-90
2023/01/20 07:14:03;;;;;;;;;;;;;;;14.31;32.98;97691.31;5055362;28;20380;-90
2023/01/20 07:16:29;;;;;;;;;;;;;;;14.16;33.09;97694.25;5054624;28;19921;-89
2023/01/20 07:18:55;;;;;;;;;;;;;;;13.64;34.09;97696.00;5057030;28;19971;-89
2023/01/20 07:21:22;;;;;;;;;;;;;;;14.04;33.46;97709.13;5054238;28;20295;-90
2023/01/20 07:23:48;;;;;;;;;;;;;;;14.20;32.81;97714.41;5044459;28;19923;-90
2023/01/20 07:26:16;;;;;;;;;;;;;;;16.04;30.94;97703.69;5057585;28;19917;-90
2023/01/20 07:28:42;;;;;;;;;;;;;;;16.02;29.93;97705.25;5055173;28;19928;-90
2023/01/20 07:31:10;;;;;;;;;;;;;;;17.82;27.06;97701.50;5055387;28;19917;-90
2023/01/20 07:33:36;;;;;;;;;;;;;;;16.82;28.64;97707.50;5054902;28;19917;-90
2023/01/20 07:36:03;;;;;;;;;;;;;;;17.91;27.14;97712.97;5054684;28;19920;-90
2023/01/20 07:38:29;;;;;;;;;;;;;;;18.57;26.23;97708.34;5055029;28;19963;-90
2023/01/20 07:41:03;;;;;;;;;;;;;;;19.07;25.49;97710.78;5054074;28;20364;-90
2023/01/20 07:43:29;;;;;;;;;;;;;;;18.24;26.39;97722.78;5055092;28;19925;-90
2023/01/20 07:45:56;;;;;;;;;;;;;;;16.74;28.42;97721.72;5037141;28;19917;-90
2023/01/20 07:48:23;;;;;;;;;;;;;;;16.59;28.86;97715.38;5038909;28;19921;-90
2023/01/20 07:50:56;;;;;;;;;;;;;;;17.17;27.99;97718.63;5034934;28;19917;-90
2023/01/20 07:53:22;;;;;;;;;;;;;;;17.46;27.78;97718.56;5043422;28;20381;-90
2023/01/20 07:55:48;;;;;;;;;;;;;;;18.19;26.50;97727.94;5054842;28;19917;-89
2023/01/20 07:58:14;;;;;;;;;;;;;;;17.12;27.98;97724.56;5072985;28;19921;-90
2023/01/20 08:00:40;;;;;;;;;;;;;;;17.55;27.40;97728.13;5042875;28;19967;-90
2023/01/20 08:03:06;;;;;;;;;;;;;;;17.09;28.14;97722.56;5063643;28;20004;-90
2023/01/20 08:05:32;;;;;;;;;;;;;;;16.56;28.62;97738.34;5066341;28;19925;-90
2023/01/20 08:07:58;;;;;;;;;;;;;;;15.37;30.80;97730.97;5054470;28;19917;-90
2023/01/20 08:10:24;;;;;;;;;;;;;;;13.90;33.15;97747.56;5054430;28;20015;-91
2023/01/20 08:12:50;;;;;;;;;;;;;;;14.10;33.37;97751.75;5054754;28;19927;-90
2023/01/20 08:15:16;;;;;;;;;;;;;;;13.79;33.63;97752.16;5071971;28;20350;-90
2023/01/20 08:17:42;;;;;;;;;;;;;;;14.23;33.31;97755.88;5054239;28;19924;-90
2023/01/20 08:20:09;;;;;;;;;;;;;;;15.55;30.74;97748.50;5068781;28;19965;-90
2023/01/20 08:22:35;;;;;;;;;;;;;;;14.25;33.26;97756.31;5074455;28;19917;-90
2023/01/20 08:25:01;;;;;;;;;;;;;;;12.49;35.96;97754.31;5074163;28;19927;-90
2023/01/20 08:27:27;;;;;;;;;;;;;;;12.00;36.80;97752.53;5057351;28;19978;-90
2023/01/20 08:29:54;;;;;;;;;;;;;;;11.58;38.66;97761.44;5054616;28;20437;-89
2023/01/20 08:32:20;;;;;;;;;;;;;;;11.73;38.27;97757.88;5035589;28;19929;-90
2023/01/20 08:34:46;;;;;;;;;;;;;;;11.90;38.24;97759.44;5054297;28;19921;-89
2023/01/20 08:37:12;;;;;;;;;;;;;;;12.45;36.80;97763.66;5051139;28;19932;-90
2023/01/20 08:39:38;;;;;;;;;;;;;;;14.92;32.23;97759.00;5053841;28;19920;-89
2023/01/20 08:42:04;;;;;;;;;;;;;;;17.15;28.70;97757.03;5035911;28;20377;-90
2023/01/20 08:44:30;;;;;;;;;;;;;;;18.04;27.39;97757.00;5052363;28;20031;-90
2023/01/20 08:46:58;;;;;;;;;;;;;;;16.81;28.96;97764.13;5054518;28;20468;-90
2023/01/20 08:49:24;;;;;;;;;;;;;;;17.90;27.52;97764.16;5071427;28;19948;-90
2023/01/20 08:51:50;;;;;;;;;;;;;;;16.37;29.57;97767.13;5054118;28;19920;-89
2023/01/20 08:54:16;;;;;;;;;;;;;;;16.09;30.03;97760.66;5054339;28;19924;-90
2023/01/20 08:56:42;;;;;;;;;;;;;;;16.31;29.94;97763.13;5054356;28;19917;-90
2023/01/20 08:59:09;;;;;;;;;;;;;;;17.61;28.23;97768.19;5053616;28;19999;-90
2023/01/20 09:01:36;;;;;;;;;;;;;;;17.92;27.31;97761.75;5054055;28;20381;-90
2023/01/20 09:04:04;;;;;;;;;;;;;;;18.57;26.47;97769.53;5056303;28;19927;-90
2023/01/20 09:06:31;;;;;;;;;;;;;;;16.46;29.66;97775.88;5070391;28;19960;-90
2023/01/20 09:08:57;;;;;;;;;;;;;;;17.04;28.94;97774.84;5053980;28;19964;-90
2023/01/20 09:11:23;;;;;;;;;;;;;;;16.43;29.32;97782.19;5053827;28;20391;-89
2023/01/20 09:13:49;;;;;;;;;;;;;;;17.71;28.36;97786.00;5053774;28;19920;-90
2023/01/20 09:16:16;;;;;;;;;;;;;;;18.74;26.05;97778.94;5044467;28;20023;-90
2023/01/20 09:18:43;;;;;;;;;;;;;;;18.44;27.02;97782.25;5036571;28;19921;-90
2023/01/20 09:21:09;;;;;;;;;;;;;;;19.43;25.42;97778.94;5053115;28;20424;-90
2023/01/20 09:23:37;;;;;;;;;;;;;;;19.14;25.80;97781.09;5047504;28;20044;-91
2023/01/20 09:26:04;;;;;;;;;;;;;;;19.77;25.03;97774.22;5014719;28;20254;-90
2023/01/20 09:28:30;;;;;;;;;;;;;;;18.75;26.25;97776.97;5028473;28;19917;-90
2023/01/20 09:31:00;;;;;;;;;;;;;;;19.56;25.25;97770.84;5017554;28;19917;-90
2023/01/20 09:33:26;;;;;;;;;;;;;;;19.21;25.98;97775.47;5018248;28;19917;-90
2023/01/20 09:35:55;;;;;;;;;;;;;;;16.56;28.70;97771.59;5018070;28;20397;-90
2023/01/20 09:44:12;;;;;;;;;;;;;;;17.18;29.29;97764.56;5037656;28;19928;-90
2023/01/20 09:46:38;;;;;;;;;;;;;;;19.16;26.50;97766.78;5019479;28;20304;-91
2023/01/20 09:54:59;;;;;;;;;;;;;;;21.00;24.11;97757.25;5056664;28;19970;-90
2023/01/20 09:57:26;;;;;;;;;;;;;;;19.58;25.21;97754.53;5053989;28;19921;-91
2023/01/20 09:59:59;;;;;;;;;;;;;;;18.94;26.26;97765.34;5036987;28;19925;-90
2023/01/20 10:02:30;;;;;;;;;;;;;;;19.06;26.53;97759.28;5036865;28;20328;-90
2023/01/20 10:04:59;;;;;;;;;;;;;;;17.77;28.20;97763.00;5037195;28;19956;-90
2023/01/20 10:07:43;;;;;;;;;;;;;;;18.14;27.38;97754.16;5036847;28;19971;-91
2023/01/20 10:10:09;;;;;;;;;;;;;;;15.94;30.71;97762.56;5037140;28;19924;-91
2023/01/20 10:12:56;;;;;;;;;;;;;;;18.45;27.61;97758.84;5043645;28;19916;-91
2023/01/20 10:15:25;;;;;;;;;;;;;;;20.52;24.52;97751.94;5049571;28;19960;-91
2023/01/20 10:17:56;;;;;;;;;;;;;;;18.85;26.36;97760.22;5057730;28;19924;-91
2023/01/20 10:20:41;;;;;;;;;;;;;;;19.70;25.69;97760.38;5073360;28;19920;-91
2023/01/20 10:23:12;;;;;;;;;;;;;;;17.27;28.69;97764.97;5077203;28;19920;-91
2023/01/20 10:25:38;;;;;;;;;;;;;;;18.84;26.95;97761.41;5070535;28;19979;-91
2023/01/20 10:28:10;;;;;;;;;;;;;;;19.38;25.94;97762.66;5049462;28;19917;-91
2023/01/20 10:30:37;;;;;;;;;;;;;;;18.95;26.77;97762.13;5066758;28;19917;-91
2023/01/20 10:33:13;;;;;;;;;;;;;;;17.57;28.17;97772.16;5060938;28;20311;-92
2023/01/20 10:35:41;;;;;;;;;;;;;;;17.42;29.04;97765.78;5056530;28;19917;-92
2023/01/20 10:38:18;;;;;;;;;;;;;;;17.75;28.36;97768.16;5044973;28;19916;-91
2023/01/20 10:40:48;;;;;;;;;;;;;;;18.47;27.37;97762.00;5053312;28;19944;-91
2023/01/20 10:43:15;;;;;;;;;;;;;;;15.26;32.49;97760.50;5056533;28;19917;-90
2023/01/20 10:45:41;;;;;;;;;;;;;;;16.48;30.19;97754.09;5056868;28;19931;-91
2023/01/20 10:48:14;;;;;;;;;;;;;;;16.00;31.12;97763.81;5075820;28;20004;-91
2023/01/20 10:50:46;;;;;;;;;;;;;;;17.56;29.19;97768.56;5056872;28;19970;-92
2023/01/20 10:53:32;;;;;;;;;;;;;;;15.62;31.78;97759.63;5056273;28;19928;-92
2023/01/20 10:56:17;;;;;;;;;;;;;;;18.08;28.12;97757.75;5056425;28;20336;-91
2023/01/20 10:58:44;;;;;;;;;;;;;;;18.10;28.17;97758.16;5056180;28;20331;-92
2023/01/20 11:01:13;;;;;;;;;;;;;;;17.49;29.05;97751.91;5056368;28;20015;-92
2023/01/20 11:03:41;;;;;;;;;;;;;;;15.98;31.39;97743.22;5062805;28;20015;-91
2023/01/20 11:06:15;;;;;;;;;;;;;;;15.75;31.35;97746.28;5067404;28;19921;-92
2023/01/20 11:08:42;;;;;;;;;;;;;;;17.65;28.91;97734.84;5056405;28;19943;-93
2023/01/20 11:11:09;;;;;;;;;;;;;;;16.96;29.61;97738.03;5075578;28;19920;-91
2023/01/20 11:13:35;;;;;;;;;;;;;;;17.67;28.76;97729.69;5069942;28;20323;-91
2023/01/20 11:16:05;;;;;;;;;;;;;;;17.04;29.71;97720.19;5055726;28;20011;-92
2023/01/20 11:18:31;;;;;;;;;;;;;;;15.81;31.87;97723.38;5055759;28;19917;-92
2023/01/20 11:20:57;;;;;;;;;;;;;;;17.48;29.24;97730.09;5064690;28;20280;-92
2023/01/20 11:23:31;;;;;;;;;;;;;;;16.61;30.52;97737.97;5065103;28;19913;-92
2023/01/20 11:26:20;;;;;;;;;;;;;;;18.15;28.29;97735.50;5040325;28;19917;-92
2023/01/20 11:28:46;;;;;;;;;;;;;;;16.94;29.69;97723.72;5030013;28;19913;-93
2023/01/20 11:31:13;;;;;;;;;;;;;;;14.82;33.37;97721.81;5035856;28;20344;-94
2023/01/20 11:33:39;;;;;;;;;;;;;;;15.27;32.67;97711.50;5039692;28;19919;-92
2023/01/20 11:36:07;;;;;;;;;;;;;;;16.59;29.92;97699.53;5017678;28;19956;-92
2023/01/20 11:38:44;;;;;;;;;;;;;;;15.12;32.56;97703.09;5063799;28;19917;-93
2023/01/20 11:41:20;;;;;;;;;;;;;;;13.78;35.56;97717.44;5057863;28;19960;-92
2023/01/20 11:43:46;;;;;;;;;;;;;;;14.52;34.69;97715.59;5055601;28;19927;-91
2023/01/20 11:46:18;;;;;;;;;;;;;;;14.09;34.74;97714.31;5037499;28;19983;-92
2023/01/20 11:48:44;;;;;;;;;;;;;;;15.65;32.59;97691.66;5054289;28;19921;-93
2023/01/20 11:51:18;;;;;;;;;;;;;;;14.87;33.50;97701.31;5055225;28;19979;-92
2023/01/20 11:53:45;;;;;;;;;;;;;;;15.20;32.92;97702.00;5048428;28;19917;-95
2023/01/20 11:56:23;;;;;;;;;;;;;;;14.74;33.59;97691.72;5073870;28;20380;-93
2023/01/20 11:58:57;;;;;;;;;;;;;;;16.42;31.06;97696.69;5055257;28;19971;-93
2023/01/20 12:01:28;;;;;;;;;;;;;;;15.50;32.27;97689.97;5055089;28;19977;-94
2023/01/20 12:04:12;;;;;;;;;;;;;;;14.80;33.76;97698.47;5055004;28;20008;-93
2023/01/20 12:06:47;;;;;;;;;;;;;;;16.40;30.64;97697.09;5054714;28;19940;-93
2023/01/20 12:09:16;;;;;;;;;;;;;;;18.68;27.75;97699.13;5054812;28;19940;-93
2023/01/20 12:11:50;;;;;;;;;;;;;;;20.21;25.38;97692.53;5062784;28;20011;-92
2023/01/20 12:14:22;;;;;;;;;;;;;;;19.34;25.95;97695.06;5065456;28;19920;-93
2023/01/20 12:17:02;;;;;;;;;;;;;;;16.65;29.75;97702.72;5054265;28;20423;-92
2023/01/20 12:19:35;;;;;;;;;;;;;;;15.58;31.70;97702.66;5033584;28;20297;-92
2023/01/20 12:22:05;;;;;;;;;;;;;;;17.11;29.37;97700.78;5035046;28;19921;-92
2023/01/20 12:27:28;;;;;;;;;;;;;;;17.93;28.38;97715.34;5035079;28;20380;-92
2023/01/20 12:29:57;;;;;;;;;;;;;;;16.75;30.19;97710.28;5069525;28;20011;-92
2023/01/20 12:32:23;;;;;;;;;;;;;;;14.05;34.88;97718.97;5047056;28;19974;-93
2023/01/20 12:34:49;;;;;;;;;;;;;;;15.88;32.09;97711.53;5054100;28;19920;-92
2023/01/20 12:37:40;;;;;;;;;;;;;;;15.80;31.86;97721.78;5053845;28;19917;-92
2023/01/20 12:40:25;;;;;;;;;;;;;;;16.70;30.41;97713.44;5054139;28;19978;-92
2023/01/20 12:42:54;;;;;;;;;;;;;;;15.25;32.69;97714.66;5054498;28;20339;-92
2023/01/20 12:45:23;;;;;;;;;;;;;;;18.80;27.42;97709.78;5058975;28;19921;-91
2023/01/20 12:47:52;;;;;;;;;;;;;;;19.25;26.43;97708.66;5068503;28;20311;-92
2023/01/20 12:50:36;;;;;;;;;;;;;;;20.08;25.45;97708.22;5051518;28;19921;-87
2023/01/20 12:53:14;;;;;;;;;;;;;;;20.41;25.41;97717.81;5045946;28;19921;-89
2023/01/20 12:55:51;;;;;;;;;;;;;;;17.86;28.31;97723.69;5049333;28;20399;-86
2023/01/20 12:58:23;;;;;;;;;;;;;;;19.14;26.66;97735.75;5053657;28;19913;-86
2023/01/20 13:01:07;;;;;;;;;;;;;;;20.22;25.11;97735.19;5047271;28;19928;-85
2023/01/20 13:03:36;;;;;;;;;;;;;;;16.90;29.73;97741.56;5060232;28;19963;-86
2023/01/20 13:06:08;;;;;;;;;;;;;;;14.94;32.80;97751.94;5050400;28;19924;-85
2023/01/20 13:08:46;;;;;;;;;;;;;;;15.51;32.29;97747.69;5052477;28;19964;-85
2023/01/20 13:11:21;;;;;;;;;;;;;;;15.82;31.92;97752.63;5053674;28;20376;-85